sensor_id;sensor_type;location;lat;lon;timestamp;P1;durP1;ratioP1;P2;durP2;ratioP2
16189;SDS011;41754;51.498;7.540;2023-10-09T00:00:06;21.65;;;12.10;;
16189;SDS011;41754;51.498;7.540;2023-10-09T00:03:04;19.15;;;11.77;;
16189;SDS011;41754;51.498;7.540;2023-10-09T00:05:33;21.02;;;12.27;;
16189;SDS011;41754;51.498;7.540;2023-10-09T00:08:12;19.48;;;10.98;;
16189;SDS011;41754;51.498;7.540;2023-10-09T00:10:45;19.30;;;11.45;;
16189;SDS011;41754;51.498;7.540;2023-10-09T00:13:19;17.77;;;11.13;;
16189;SDS011;41754;51.498;7.540;2023-10-09T00:15:55;15.25;;;10.50;;
16189;SDS011;41754;51.498;7.540;2023-10-09T00:18:28;17.00;;;11.02;;
16189;SDS011;41754;51.498;7.540;2023-10-09T00:20:57;16.95;;;11.05;;
16189;SDS011;41754;51.498;7.540;2023-10-09T00:23:37;17.33;;;11.18;;
16189;SDS011;41754;51.498;7.540;2023-10-09T00:26:05;15.35;;;10.43;;
16189;SDS011;41754;51.498;7.540;2023-10-09T00:28:46;18.63;;;10.38;;
16189;SDS011;41754;51.498;7.540;2023-10-09T00:31:18;18.95;;;11.00;;
16189;SDS011;41754;51.498;7.540;2023-10-09T00:33:58;17.63;;;10.93;;
16189;SDS011;41754;51.498;7.540;2023-10-09T00:36:45;18.58;;;10.48;;
16189;SDS011;41754;51.498;7.540;2023-10-09T00:39:18;19.23;;;10.48;;
16189;SDS011;41754;51.498;7.540;2023-10-09T00:42:00;18.50;;;10.35;;
16189;SDS011;41754;51.498;7.540;2023-10-09T00:44:29;15.38;;;9.77;;
16189;SDS011;41754;51.498;7.540;2023-10-09T00:47:04;16.05;;;9.38;;
16189;SDS011;41754;51.498;7.540;2023-10-09T00:49:51;14.88;;;8.70;;
16189;SDS011;41754;51.498;7.540;2023-10-09T00:52:26;15.35;;;9.70;;
16189;SDS011;41754;51.498;7.540;2023-10-09T00:55:01;13.93;;;8.73;;
16189;SDS011;41754;51.498;7.540;2023-10-09T00:57:34;15.27;;;9.18;;
16189;SDS011;41754;51.498;7.540;2023-10-09T01:00:07;12.60;;;8.00;;
16189;SDS011;41754;51.498;7.540;2023-10-09T01:02:50;14.90;;;9.50;;
16189;SDS011;41754;51.498;7.540;2023-10-09T01:05:38;12.13;;;8.43;;
16189;SDS011;41754;51.498;7.540;2023-10-09T01:08:12;13.43;;;8.82;;
16189;SDS011;41754;51.498;7.540;2023-10-09T01:10:51;13.73;;;9.10;;
16189;SDS011;41754;51.498;7.540;2023-10-09T01:13:23;11.70;;;8.27;;
16189;SDS011;41754;51.498;7.540;2023-10-09T01:16:06;14.40;;;8.68;;
16189;SDS011;41754;51.498;7.540;2023-10-09T01:18:39;11.98;;;8.57;;
16189;SDS011;41754;51.498;7.540;2023-10-09T01:21:08;13.43;;;9.05;;
16189;SDS011;41754;51.498;7.540;2023-10-09T01:23:42;15.50;;;8.38;;
16189;SDS011;41754;51.498;7.540;2023-10-09T01:26:30;15.80;;;9.13;;
16189;SDS011;41754;51.498;7.540;2023-10-09T01:29:05;12.80;;;9.00;;
16189;SDS011;41754;51.498;7.540;2023-10-09T01:31:37;11.77;;;8.73;;
16189;SDS011;41754;51.498;7.540;2023-10-09T01:34:10;17.67;;;9.75;;
16189;SDS011;41754;51.498;7.540;2023-10-09T01:36:42;16.92;;;9.52;;
16189;SDS011;41754;51.498;7.540;2023-10-09T01:39:11;15.80;;;9.35;;
16189;SDS011;41754;51.498;7.540;2023-10-09T01:41:49;14.43;;;9.35;;
16189;SDS011;41754;51.498;7.540;2023-10-09T01:44:18;14.63;;;9.85;;
16189;SDS011;41754;51.498;7.540;2023-10-09T01:46:47;14.93;;;9.73;;
16189;SDS011;41754;51.498;7.540;2023-10-09T01:49:19;15.45;;;9.38;;
16189;SDS011;41754;51.498;7.540;2023-10-09T01:51:49;15.80;;;9.88;;
16189;SDS011;41754;51.498;7.540;2023-10-09T01:54:18;15.55;;;9.57;;
16189;SDS011;41754;51.498;7.540;2023-10-09T01:57:00;15.35;;;9.63;;
16189;SDS011;41754;51.498;7.540;2023-10-09T01:59:32;17.27;;;9.63;;
16189;SDS011;41754;51.498;7.540;2023-10-09T02:02:04;13.27;;;9.68;;
16189;SDS011;41754;51.498;7.540;2023-10-09T02:04:41;15.98;;;9.50;;
16189;SDS011;41754;51.498;7.540;2023-10-09T02:07:09;14.07;;;8.98;;
16189;SDS011;41754;51.498;7.540;2023-10-09T02:09:41;12.13;;;9.02;;
16189;SDS011;41754;51.498;7.540;2023-10-09T02:12:13;13.95;;;9.45;;
16189;SDS011;41754;51.498;7.540;2023-10-09T02:14:41;13.55;;;9.52;;
16189;SDS011;41754;51.498;7.540;2023-10-09T02:17:10;13.73;;;9.77;;
16189;SDS011;41754;51.498;7.540;2023-10-09T02:19:44;16.40;;;10.43;;
16189;SDS011;41754;51.498;7.540;2023-10-09T02:22:16;12.15;;;9.15;;
16189;SDS011;41754;51.498;7.540;2023-10-09T02:24:45;13.90;;;9.50;;
16189;SDS011;41754;51.498;7.540;2023-10-09T02:27:25;18.60;;;10.23;;
16189;SDS011;41754;51.498;7.540;2023-10-09T02:30:13;16.02;;;9.75;;
16189;SDS011;41754;51.498;7.540;2023-10-09T02:32:46;14.93;;;9.98;;
16189;SDS011;41754;51.498;7.540;2023-10-09T02:35:20;19.35;;;10.55;;
16189;SDS011;41754;51.498;7.540;2023-10-09T02:37:54;15.23;;;9.90;;
16189;SDS011;41754;51.498;7.540;2023-10-09T02:40:27;16.70;;;10.32;;
16189;SDS011;41754;51.498;7.540;2023-10-09T02:42:59;18.02;;;9.77;;
16189;SDS011;41754;51.498;7.540;2023-10-09T02:45:27;18.13;;;10.30;;
16189;SDS011;41754;51.498;7.540;2023-10-09T02:48:01;15.15;;;9.60;;
16189;SDS011;41754;51.498;7.540;2023-10-09T02:50:37;14.90;;;9.20;;
16189;SDS011;41754;51.498;7.540;2023-10-09T02:53:11;12.73;;;8.98;;
16189;SDS011;41754;51.498;7.540;2023-10-09T02:55:46;14.50;;;9.30;;
16189;SDS011;41754;51.498;7.540;2023-10-09T02:58:38;15.18;;;9.88;;
16189;SDS011;41754;51.498;7.540;2023-10-09T03:01:10;12.75;;;9.18;;
16189;SDS011;41754;51.498;7.540;2023-10-09T03:03:40;13.82;;;8.73;;
16189;SDS011;41754;51.498;7.540;2023-10-09T03:06:12;13.88;;;8.93;;
16189;SDS011;41754;51.498;7.540;2023-10-09T03:08:45;13.80;;;8.93;;
16189;SDS011;41754;51.498;7.540;2023-10-09T03:11:16;12.90;;;8.52;;
16189;SDS011;41754;51.498;7.540;2023-10-09T03:13:45;11.10;;;8.13;;
16189;SDS011;41754;51.498;7.540;2023-10-09T03:16:14;12.18;;;8.55;;
16189;SDS011;41754;51.498;7.540;2023-10-09T03:18:48;13.10;;;8.52;;
16189;SDS011;41754;51.498;7.540;2023-10-09T03:21:18;12.85;;;8.45;;
16189;SDS011;41754;51.498;7.540;2023-10-09T03:23:47;14.55;;;8.48;;
16189;SDS011;41754;51.498;7.540;2023-10-09T03:26:18;11.15;;;7.78;;
16189;SDS011;41754;51.498;7.540;2023-10-09T03:28:48;15.30;;;8.75;;
16189;SDS011;41754;51.498;7.540;2023-10-09T03:31:16;11.15;;;7.57;;
16189;SDS011;41754;51.498;7.540;2023-10-09T03:33:44;12.32;;;8.13;;
16189;SDS011;41754;51.498;7.540;2023-10-09T03:36:13;13.65;;;8.57;;
16189;SDS011;41754;51.498;7.540;2023-10-09T03:38:43;14.38;;;7.65;;
16189;SDS011;41754;51.498;7.540;2023-10-09T03:41:11;12.43;;;8.55;;
16189;SDS011;41754;51.498;7.540;2023-10-09T03:43:44;13.43;;;8.38;;
16189;SDS011;41754;51.498;7.540;2023-10-09T03:46:12;14.27;;;8.20;;
16189;SDS011;41754;51.498;7.540;2023-10-09T03:48:47;14.82;;;8.27;;
16189;SDS011;41754;51.498;7.540;2023-10-09T03:51:15;10.32;;;7.43;;
16189;SDS011;41754;51.498;7.540;2023-10-09T03:53:47;12.05;;;9.10;;
16189;SDS011;41754;51.498;7.540;2023-10-09T03:56:17;11.23;;;8.27;;
16189;SDS011;41754;51.498;7.540;2023-10-09T03:58:49;12.77;;;8.48;;
16189;SDS011;41754;51.498;7.540;2023-10-09T04:01:19;12.80;;;8.90;;
16189;SDS011;41754;51.498;7.540;2023-10-09T04:03:54;10.57;;;8.15;;
16189;SDS011;41754;51.498;7.540;2023-10-09T04:06:26;10.57;;;8.07;;
16189;SDS011;41754;51.498;7.540;2023-10-09T04:08:59;11.65;;;8.68;;
16189;SDS011;41754;51.498;7.540;2023-10-09T04:11:40;13.43;;;8.02;;
16189;SDS011;41754;51.498;7.540;2023-10-09T04:14:11;10.88;;;7.47;;
16189;SDS011;41754;51.498;7.540;2023-10-09T04:16:50;12.85;;;7.40;;
16189;SDS011;41754;51.498;7.540;2023-10-09T04:19:18;13.35;;;8.27;;
16189;SDS011;41754;51.498;7.540;2023-10-09T04:21:48;10.82;;;7.40;;
16189;SDS011;41754;51.498;7.540;2023-10-09T04:24:15;11.07;;;7.93;;
16189;SDS011;41754;51.498;7.540;2023-10-09T04:26:52;11.68;;;7.82;;
16189;SDS011;41754;51.498;7.540;2023-10-09T04:29:30;11.75;;;8.35;;
16189;SDS011;41754;51.498;7.540;2023-10-09T04:32:05;10.30;;;7.65;;
16189;SDS011;41754;51.498;7.540;2023-10-09T04:34:45;14.80;;;8.23;;
16189;SDS011;41754;51.498;7.540;2023-10-09T04:37:16;12.95;;;8.25;;
16189;SDS011;41754;51.498;7.540;2023-10-09T04:40:03;12.80;;;8.27;;
16189;SDS011;41754;51.498;7.540;2023-10-09T04:42:38;11.73;;;8.60;;
16189;SDS011;41754;51.498;7.540;2023-10-09T04:45:14;11.75;;;8.57;;
16189;SDS011;41754;51.498;7.540;2023-10-09T04:47:56;9.88;;;7.43;;
16189;SDS011;41754;51.498;7.540;2023-10-09T04:50:33;12.25;;;8.45;;
16189;SDS011;41754;51.498;7.540;2023-10-09T04:53:12;10.68;;;8.00;;
16189;SDS011;41754;51.498;7.540;2023-10-09T04:55:54;12.00;;;7.85;;
16189;SDS011;41754;51.498;7.540;2023-10-09T04:58:24;12.77;;;7.95;;
16189;SDS011;41754;51.498;7.540;2023-10-09T05:00:54;9.55;;;7.32;;
16189;SDS011;41754;51.498;7.540;2023-10-09T05:03:39;13.50;;;8.00;;
16189;SDS011;41754;51.498;7.540;2023-10-09T05:06:11;11.18;;;7.43;;
16189;SDS011;41754;51.498;7.540;2023-10-09T05:09:09;11.48;;;8.05;;
16189;SDS011;41754;51.498;7.540;2023-10-09T05:11:40;10.95;;;7.07;;
16189;SDS011;41754;51.498;7.540;2023-10-09T05:14:20;10.70;;;7.38;;
16189;SDS011;41754;51.498;7.540;2023-10-09T05:17:06;12.90;;;7.53;;
16189;SDS011;41754;51.498;7.540;2023-10-09T05:19:42;15.73;;;7.30;;
16189;SDS011;41754;51.498;7.540;2023-10-09T05:22:22;11.98;;;7.78;;
16189;SDS011;41754;51.498;7.540;2023-10-09T05:25:04;11.32;;;6.88;;
16189;SDS011;41754;51.498;7.540;2023-10-09T05:27:55;12.23;;;7.82;;
16189;SDS011;41754;51.498;7.540;2023-10-09T05:30:42;11.43;;;7.28;;
16189;SDS011;41754;51.498;7.540;2023-10-09T05:33:11;12.38;;;7.80;;
16189;SDS011;41754;51.498;7.540;2023-10-09T05:35:55;10.40;;;7.55;;
16189;SDS011;41754;51.498;7.540;2023-10-09T05:38:37;12.30;;;7.35;;
16189;SDS011;41754;51.498;7.540;2023-10-09T05:41:12;13.77;;;8.18;;
16189;SDS011;41754;51.498;7.540;2023-10-09T05:44:01;11.02;;;7.07;;
16189;SDS011;41754;51.498;7.540;2023-10-09T05:46:46;11.23;;;7.47;;
16189;SDS011;41754;51.498;7.540;2023-10-09T05:49:38;9.65;;;7.07;;
16189;SDS011;41754;51.498;7.540;2023-10-09T05:52:12;12.45;;;7.57;;
16189;SDS011;41754;51.498;7.540;2023-10-09T05:55:10;11.68;;;7.97;;
16189;SDS011;41754;51.498;7.540;2023-10-09T05:58:03;11.25;;;7.68;;
16189;SDS011;41754;51.498;7.540;2023-10-09T06:01:04;11.52;;;7.85;;
16189;SDS011;41754;51.498;7.540;2023-10-09T06:03:49;16.08;;;8.07;;
16189;SDS011;41754;51.498;7.540;2023-10-09T06:06:22;11.48;;;7.13;;
16189;SDS011;41754;51.498;7.540;2023-10-09T06:09:10;10.95;;;7.78;;
16189;SDS011;41754;51.498;7.540;2023-10-09T06:12:02;10.32;;;7.50;;
16189;SDS011;41754;51.498;7.540;2023-10-09T06:14:47;12.85;;;8.48;;
16189;SDS011;41754;51.498;7.540;2023-10-09T06:17:33;12.23;;;8.35;;
16189;SDS011;41754;51.498;7.540;2023-10-09T06:20:10;12.13;;;8.45;;
16189;SDS011;41754;51.498;7.540;2023-10-09T06:22:53;13.07;;;8.40;;
16189;SDS011;41754;51.498;7.540;2023-10-09T06:25:24;13.32;;;9.00;;
16189;SDS011;41754;51.498;7.540;2023-10-09T06:27:59;10.20;;;8.07;;
16189;SDS011;41754;51.498;7.540;2023-10-09T06:30:27;14.30;;;8.02;;
16189;SDS011;41754;51.498;7.540;2023-10-09T06:33:01;13.40;;;8.45;;
16189;SDS011;41754;51.498;7.540;2023-10-09T06:35:46;14.00;;;8.90;;
16189;SDS011;41754;51.498;7.540;2023-10-09T06:38:36;13.55;;;8.55;;
16189;SDS011;41754;51.498;7.540;2023-10-09T06:41:18;10.13;;;8.18;;
16189;SDS011;41754;51.498;7.540;2023-10-09T06:44:00;12.05;;;8.13;;
16189;SDS011;41754;51.498;7.540;2023-10-09T06:46:34;13.02;;;9.38;;
16189;SDS011;41754;51.498;7.540;2023-10-09T06:49:10;8.82;;;7.07;;
16189;SDS011;41754;51.498;7.540;2023-10-09T06:51:59;10.88;;;8.27;;
16189;SDS011;41754;51.498;7.540;2023-10-09T06:54:43;12.90;;;7.97;;
16189;SDS011;41754;51.498;7.540;2023-10-09T06:57:17;10.52;;;8.05;;
16189;SDS011;41754;51.498;7.540;2023-10-09T07:00:10;11.55;;;8.60;;
16189;SDS011;41754;51.498;7.540;2023-10-09T07:02:56;11.43;;;7.88;;
16189;SDS011;41754;51.498;7.540;2023-10-09T07:05:25;14.00;;;8.43;;
16189;SDS011;41754;51.498;7.540;2023-10-09T07:08:13;12.43;;;8.68;;
16189;SDS011;41754;51.498;7.540;2023-10-09T07:11:04;13.52;;;9.00;;
16189;SDS011;41754;51.498;7.540;2023-10-09T07:14:04;10.55;;;8.43;;
16189;SDS011;41754;51.498;7.540;2023-10-09T07:16:33;11.65;;;7.60;;
16189;SDS011;41754;51.498;7.540;2023-10-09T07:19:05;11.60;;;7.30;;
16189;SDS011;41754;51.498;7.540;2023-10-09T07:21:52;14.98;;;8.32;;
16189;SDS011;41754;51.498;7.540;2023-10-09T07:24:21;13.38;;;8.07;;
16189;SDS011;41754;51.498;7.540;2023-10-09T07:27:05;13.68;;;8.07;;
16189;SDS011;41754;51.498;7.540;2023-10-09T07:29:36;11.85;;;7.85;;
16189;SDS011;41754;51.498;7.540;2023-10-09T07:32:14;10.82;;;7.80;;
16189;SDS011;41754;51.498;7.540;2023-10-09T07:34:47;12.82;;;7.93;;
16189;SDS011;41754;51.498;7.540;2023-10-09T07:37:23;12.52;;;8.05;;
16189;SDS011;41754;51.498;7.540;2023-10-09T07:39:57;14.98;;;7.90;;
16189;SDS011;41754;51.498;7.540;2023-10-09T07:42:26;11.90;;;7.40;;
16189;SDS011;41754;51.498;7.540;2023-10-09T07:45:00;9.38;;;7.40;;
16189;SDS011;41754;51.498;7.540;2023-10-09T07:47:39;11.50;;;8.68;;
16189;SDS011;41754;51.498;7.540;2023-10-09T07:50:29;13.90;;;9.07;;
16189;SDS011;41754;51.498;7.540;2023-10-09T07:53:07;14.48;;;8.82;;
16189;SDS011;41754;51.498;7.540;2023-10-09T07:55:53;14.45;;;8.90;;
16189;SDS011;41754;51.498;7.540;2023-10-09T07:58:26;13.10;;;8.88;;
16189;SDS011;41754;51.498;7.540;2023-10-09T08:00:55;14.38;;;9.00;;
16189;SDS011;41754;51.498;7.540;2023-10-09T08:03:46;11.18;;;8.82;;
16189;SDS011;41754;51.498;7.540;2023-10-09T08:06:24;12.75;;;9.13;;
16189;SDS011;41754;51.498;7.540;2023-10-09T08:09:28;13.73;;;9.25;;
16189;SDS011;41754;51.498;7.540;2023-10-09T08:12:12;12.88;;;8.88;;
16189;SDS011;41754;51.498;7.540;2023-10-09T08:15:08;16.55;;;10.13;;
16189;SDS011;41754;51.498;7.540;2023-10-09T08:17:52;13.95;;;9.32;;
16189;SDS011;41754;51.498;7.540;2023-10-09T08:20:21;14.88;;;9.10;;
16189;SDS011;41754;51.498;7.540;2023-10-09T08:22:52;17.60;;;10.05;;
16189;SDS011;41754;51.498;7.540;2023-10-09T08:25:22;15.63;;;9.70;;
16189;SDS011;41754;51.498;7.540;2023-10-09T08:27:56;15.57;;;9.35;;
16189;SDS011;41754;51.498;7.540;2023-10-09T08:30:26;18.30;;;12.13;;
16189;SDS011;41754;51.498;7.540;2023-10-09T08:33:08;14.77;;;9.63;;
16189;SDS011;41754;51.498;7.540;2023-10-09T08:35:56;14.52;;;9.32;;
16189;SDS011;41754;51.498;7.540;2023-10-09T08:38:32;15.77;;;9.70;;
16189;SDS011;41754;51.498;7.540;2023-10-09T08:41:06;15.25;;;9.68;;
16189;SDS011;41754;51.498;7.540;2023-10-09T08:43:45;19.10;;;11.32;;
16189;SDS011;41754;51.498;7.540;2023-10-09T08:46:22;14.98;;;9.30;;
16189;SDS011;41754;51.498;7.540;2023-10-09T08:48:54;16.02;;;9.88;;
16189;SDS011;41754;51.498;7.540;2023-10-09T08:51:23;16.27;;;9.45;;
16189;SDS011;41754;51.498;7.540;2023-10-09T08:53:52;16.25;;;10.02;;
16189;SDS011;41754;51.498;7.540;2023-10-09T08:56:20;13.57;;;9.63;;
16189;SDS011;41754;51.498;7.540;2023-10-09T08:58:53;13.00;;;9.40;;
16189;SDS011;41754;51.498;7.540;2023-10-09T09:01:24;12.60;;;9.65;;
16189;SDS011;41754;51.498;7.540;2023-10-09T09:03:54;12.18;;;8.90;;
16189;SDS011;41754;51.498;7.540;2023-10-09T09:06:23;14.63;;;9.43;;
16189;SDS011;41754;51.498;7.540;2023-10-09T09:08:51;15.07;;;9.93;;
16189;SDS011;41754;51.498;7.540;2023-10-09T09:11:26;12.82;;;9.70;;
16189;SDS011;41754;51.498;7.540;2023-10-09T09:14:00;14.85;;;8.98;;
16189;SDS011;41754;51.498;7.540;2023-10-09T09:16:33;13.80;;;9.68;;
16189;SDS011;41754;51.498;7.540;2023-10-09T09:19:03;13.18;;;8.75;;
16189;SDS011;41754;51.498;7.540;2023-10-09T09:21:48;9.88;;;8.50;;
16189;SDS011;41754;51.498;7.540;2023-10-09T09:24:25;12.38;;;8.55;;
16189;SDS011;41754;51.498;7.540;2023-10-09T09:27:00;12.63;;;8.13;;
16189;SDS011;41754;51.498;7.540;2023-10-09T09:29:40;15.23;;;8.45;;
16189;SDS011;41754;51.498;7.540;2023-10-09T09:32:27;9.70;;;7.55;;
16189;SDS011;41754;51.498;7.540;2023-10-09T09:35:03;12.65;;;8.23;;
16189;SDS011;41754;51.498;7.540;2023-10-09T09:37:32;12.63;;;7.72;;
16189;SDS011;41754;51.498;7.540;2023-10-09T09:40:13;11.85;;;8.20;;
16189;SDS011;41754;51.498;7.540;2023-10-09T09:42:59;12.52;;;7.50;;
16189;SDS011;41754;51.498;7.540;2023-10-09T09:45:32;9.63;;;7.65;;
16189;SDS011;41754;51.498;7.540;2023-10-09T09:48:02;15.75;;;9.02;;
16189;SDS011;41754;51.498;7.540;2023-10-09T09:50:32;10.20;;;7.65;;
16189;SDS011;41754;51.498;7.540;2023-10-09T09:53:03;11.88;;;8.30;;
16189;SDS011;41754;51.498;7.540;2023-10-09T09:55:35;12.15;;;8.20;;
16189;SDS011;41754;51.498;7.540;2023-10-09T09:58:08;8.93;;;6.78;;
16189;SDS011;41754;51.498;7.540;2023-10-09T10:00:45;12.18;;;8.07;;
16189;SDS011;41754;51.498;7.540;2023-10-09T10:03:22;12.15;;;8.50;;
16189;SDS011;41754;51.498;7.540;2023-10-09T10:05:54;10.77;;;7.90;;
16189;SDS011;41754;51.498;7.540;2023-10-09T10:08:24;11.32;;;7.78;;
16189;SDS011;41754;51.498;7.540;2023-10-09T10:10:59;11.30;;;7.35;;
16189;SDS011;41754;51.498;7.540;2023-10-09T10:20:03;11.18;;;7.90;;
16189;SDS011;41754;51.498;7.540;2023-10-09T10:22:50;11.85;;;8.45;;
16189;SDS011;41754;51.498;7.540;2023-10-09T10:25:34;10.60;;;7.82;;
16189;SDS011;41754;51.498;7.540;2023-10-09T10:28:15;10.85;;;8.07;;
16189;SDS011;41754;51.498;7.540;2023-10-09T10:30:48;11.80;;;8.25;;
16189;SDS011;41754;51.498;7.540;2023-10-09T10:33:20;10.38;;;7.82;;
16189;SDS011;41754;51.498;7.540;2023-10-09T10:35:50;11.25;;;7.13;;
16189;SDS011;41754;51.498;7.540;2023-10-09T10:38:25;14.65;;;7.97;;
16189;SDS011;41754;51.498;7.540;2023-10-09T10:41:12;11.02;;;8.00;;
16189;SDS011;41754;51.498;7.540;2023-10-09T10:43:43;13.10;;;8.82;;
16189;SDS011;41754;51.498;7.540;2023-10-09T10:46:47;13.27;;;8.68;;
16189;SDS011;41754;51.498;7.540;2023-10-09T10:49:18;12.48;;;8.23;;
16189;SDS011;41754;51.498;7.540;2023-10-09T10:51:54;11.93;;;8.25;;
16189;SDS011;41754;51.498;7.540;2023-10-09T10:54:41;10.43;;;8.20;;
16189;SDS011;41754;51.498;7.540;2023-10-09T10:57:35;12.23;;;8.93;;
16189;SDS011;41754;51.498;7.540;2023-10-09T11:00:20;11.43;;;8.10;;
16189;SDS011;41754;51.498;7.540;2023-10-09T11:03:06;11.82;;;8.25;;
16189;SDS011;41754;51.498;7.540;2023-10-09T11:05:46;10.98;;;8.23;;
16189;SDS011;41754;51.498;7.540;2023-10-09T11:08:23;12.80;;;9.00;;
16189;SDS011;41754;51.498;7.540;2023-10-09T11:11:10;12.05;;;8.57;;
16189;SDS011;41754;51.498;7.540;2023-10-09T11:13:42;12.25;;;9.82;;
16189;SDS011;41754;51.498;7.540;2023-10-09T11:16:24;12.65;;;7.95;;
16189;SDS011;41754;51.498;7.540;2023-10-09T11:19:10;10.30;;;7.90;;
16189;SDS011;41754;51.498;7.540;2023-10-09T11:21:55;13.75;;;8.32;;
16189;SDS011;41754;51.498;7.540;2023-10-09T11:24:49;11.38;;;8.43;;
16189;SDS011;41754;51.498;7.540;2023-10-09T11:27:34;15.05;;;10.25;;
16189;SDS011;41754;51.498;7.540;2023-10-09T11:30:06;12.18;;;8.98;;
16189;SDS011;41754;51.498;7.540;2023-10-09T11:32:37;14.82;;;8.60;;
16189;SDS011;41754;51.498;7.540;2023-10-09T11:35:09;11.18;;;8.02;;
16189;SDS011;41754;51.498;7.540;2023-10-09T11:37:40;10.93;;;7.65;;
16189;SDS011;41754;51.498;7.540;2023-10-09T11:43:00;11.55;;;8.23;;
16189;SDS011;41754;51.498;7.540;2023-10-09T11:45:30;10.48;;;8.20;;
16189;SDS011;41754;51.498;7.540;2023-10-09T11:48:16;10.32;;;8.00;;
16189;SDS011;41754;51.498;7.540;2023-10-09T11:51:00;13.25;;;8.85;;
16189;SDS011;41754;51.498;7.540;2023-10-09T11:53:42;12.77;;;8.43;;
16189;SDS011;41754;51.498;7.540;2023-10-09T11:56:13;10.38;;;7.97;;
16189;SDS011;41754;51.498;7.540;2023-10-09T11:58:43;13.70;;;7.78;;
16189;SDS011;41754;51.498;7.540;2023-10-09T12:01:16;11.60;;;8.05;;
16189;SDS011;41754;51.498;7.540;2023-10-09T12:03:47;10.10;;;8.32;;
16189;SDS011;41754;51.498;7.540;2023-10-09T12:06:18;14.25;;;9.00;;
16189;SDS011;41754;51.498;7.540;2023-10-09T12:08:49;13.43;;;8.48;;
16189;SDS011;41754;51.498;7.540;2023-10-09T12:11:19;14.52;;;8.70;;
16189;SDS011;41754;51.498;7.540;2023-10-09T12:13:55;14.55;;;8.63;;
16189;SDS011;41754;51.498;7.540;2023-10-09T12:16:24;13.95;;;9.32;;
16189;SDS011;41754;51.498;7.540;2023-10-09T12:18:55;13.80;;;8.98;;
16189;SDS011;41754;51.498;7.540;2023-10-09T12:21:23;12.25;;;8.85;;
16189;SDS011;41754;51.498;7.540;2023-10-09T12:23:54;11.32;;;8.27;;
16189;SDS011;41754;51.498;7.540;2023-10-09T12:26:28;12.95;;;8.32;;
16189;SDS011;41754;51.498;7.540;2023-10-09T12:29:01;12.35;;;8.45;;
16189;SDS011;41754;51.498;7.540;2023-10-09T12:31:29;13.07;;;8.70;;
16189;SDS011;41754;51.498;7.540;2023-10-09T12:34:00;13.30;;;9.43;;
16189;SDS011;41754;51.498;7.540;2023-10-09T12:36:29;14.02;;;8.85;;
16189;SDS011;41754;51.498;7.540;2023-10-09T12:38:57;14.25;;;9.07;;
16189;SDS011;41754;51.498;7.540;2023-10-09T12:41:29;11.65;;;8.95;;
16189;SDS011;41754;51.498;7.540;2023-10-09T12:44:00;14.25;;;10.02;;
16189;SDS011;41754;51.498;7.540;2023-10-09T12:46:28;12.38;;;8.40;;
16189;SDS011;41754;51.498;7.540;2023-10-09T12:49:04;11.77;;;8.80;;
16189;SDS011;41754;51.498;7.540;2023-10-09T12:51:32;14.63;;;8.73;;
16189;SDS011;41754;51.498;7.540;2023-10-09T12:54:00;14.65;;;9.20;;
16189;SDS011;41754;51.498;7.540;2023-10-09T12:56:30;16.48;;;9.00;;
16189;SDS011;41754;51.498;7.540;2023-10-09T12:59:04;13.25;;;9.30;;
16189;SDS011;41754;51.498;7.540;2023-10-09T13:01:33;16.45;;;9.98;;
16189;SDS011;41754;51.498;7.540;2023-10-09T13:04:09;15.02;;;9.13;;
16189;SDS011;41754;51.498;7.540;2023-10-09T13:06:40;15.50;;;10.13;;
16189;SDS011;41754;51.498;7.540;2023-10-09T13:09:10;16.15;;;9.88;;
16189;SDS011;41754;51.498;7.540;2023-10-09T13:11:40;15.15;;;9.13;;
16189;SDS011;41754;51.498;7.540;2023-10-09T13:14:09;17.05;;;9.35;;
16189;SDS011;41754;51.498;7.540;2023-10-09T13:16:43;14.13;;;10.18;;
16189;SDS011;41754;51.498;7.540;2023-10-09T13:19:12;14.85;;;9.35;;
16189;SDS011;41754;51.498;7.540;2023-10-09T13:21:40;10.65;;;8.80;;
16189;SDS011;41754;51.498;7.540;2023-10-09T13:24:09;13.63;;;8.68;;
16189;SDS011;41754;51.498;7.540;2023-10-09T13:26:41;13.48;;;9.13;;
16189;SDS011;41754;51.498;7.540;2023-10-09T13:29:11;14.98;;;9.65;;
16189;SDS011;41754;51.498;7.540;2023-10-09T13:31:44;14.13;;;9.52;;
16189;SDS011;41754;51.498;7.540;2023-10-09T13:34:14;16.75;;;9.13;;
16189;SDS011;41754;51.498;7.540;2023-10-09T13:36:42;14.35;;;9.27;;
16189;SDS011;41754;51.498;7.540;2023-10-09T13:39:16;17.23;;;9.65;;
16189;SDS011;41754;51.498;7.540;2023-10-09T13:41:51;13.32;;;9.02;;
16189;SDS011;41754;51.498;7.540;2023-10-09T13:44:27;16.45;;;9.02;;
16189;SDS011;41754;51.498;7.540;2023-10-09T13:46:55;12.57;;;9.30;;
16189;SDS011;41754;51.498;7.540;2023-10-09T13:49:24;14.00;;;10.13;;
16189;SDS011;41754;51.498;7.540;2023-10-09T13:51:57;12.98;;;8.80;;
16189;SDS011;41754;51.498;7.540;2023-10-09T13:54:26;15.25;;;9.27;;
16189;SDS011;41754;51.498;7.540;2023-10-09T13:57:07;17.23;;;10.45;;
16189;SDS011;41754;51.498;7.540;2023-10-09T13:59:37;16.42;;;9.07;;
16189;SDS011;41754;51.498;7.540;2023-10-09T14:02:09;17.40;;;10.05;;
16189;SDS011;41754;51.498;7.540;2023-10-09T14:04:44;21.73;;;9.85;;
16189;SDS011;41754;51.498;7.540;2023-10-09T14:07:13;12.77;;;9.43;;
16189;SDS011;41754;51.498;7.540;2023-10-09T14:09:43;16.45;;;8.98;;
16189;SDS011;41754;51.498;7.540;2023-10-09T14:12:24;14.02;;;9.75;;
16189;SDS011;41754;51.498;7.540;2023-10-09T14:14:56;17.15;;;8.98;;
16189;SDS011;41754;51.498;7.540;2023-10-09T14:17:24;15.30;;;9.70;;
16189;SDS011;41754;51.498;7.540;2023-10-09T14:19:55;13.98;;;10.02;;
16189;SDS011;41754;51.498;7.540;2023-10-09T14:22:44;13.35;;;9.27;;
16189;SDS011;41754;51.498;7.540;2023-10-09T14:25:12;12.48;;;9.40;;
16189;SDS011;41754;51.498;7.540;2023-10-09T14:27:43;16.83;;;10.00;;
16189;SDS011;41754;51.498;7.540;2023-10-09T14:30:14;14.75;;;9.40;;
16189;SDS011;41754;51.498;7.540;2023-10-09T14:32:49;12.35;;;9.38;;
16189;SDS011;41754;51.498;7.540;2023-10-09T14:35:22;12.90;;;8.68;;
16189;SDS011;41754;51.498;7.540;2023-10-09T14:37:53;15.65;;;10.02;;
16189;SDS011;41754;51.498;7.540;2023-10-09T14:40:21;12.90;;;9.32;;
16189;SDS011;41754;51.498;7.540;2023-10-09T14:42:57;14.20;;;9.98;;
16189;SDS011;41754;51.498;7.540;2023-10-09T14:45:25;16.33;;;10.10;;
16189;SDS011;41754;51.498;7.540;2023-10-09T14:47:54;13.00;;;9.43;;
16189;SDS011;41754;51.498;7.540;2023-10-09T14:50:22;17.15;;;10.25;;
16189;SDS011;41754;51.498;7.540;2023-10-09T14:52:50;14.57;;;9.80;;
16189;SDS011;41754;51.498;7.540;2023-10-09T14:55:18;16.58;;;10.60;;
16189;SDS011;41754;51.498;7.540;2023-10-09T14:57:47;14.57;;;8.98;;
16189;SDS011;41754;51.498;7.540;2023-10-09T15:00:18;15.70;;;9.10;;
16189;SDS011;41754;51.498;7.540;2023-10-09T15:02:50;14.55;;;9.52;;
16189;SDS011;41754;51.498;7.540;2023-10-09T15:05:19;12.52;;;9.05;;
16189;SDS011;41754;51.498;7.540;2023-10-09T15:07:49;15.07;;;9.10;;
16189;SDS011;41754;51.498;7.540;2023-10-09T15:10:17;14.57;;;9.73;;
16189;SDS011;41754;51.498;7.540;2023-10-09T15:12:45;18.48;;;10.32;;
16189;SDS011;41754;51.498;7.540;2023-10-09T15:15:17;16.63;;;10.63;;
16189;SDS011;41754;51.498;7.540;2023-10-09T15:17:51;16.00;;;9.60;;
16189;SDS011;41754;51.498;7.540;2023-10-09T15:20:19;19.33;;;11.07;;
16189;SDS011;41754;51.498;7.540;2023-10-09T15:22:47;15.60;;;10.48;;
16189;SDS011;41754;51.498;7.540;2023-10-09T15:25:16;15.98;;;9.68;;
16189;SDS011;41754;51.498;7.540;2023-10-09T15:27:44;15.63;;;9.80;;
16189;SDS011;41754;51.498;7.540;2023-10-09T15:30:12;15.32;;;10.25;;